createdAt,value
2023-01-29T00:00:10.592Z,44.15
2023-01-29T00:02:40.458Z,41.55
2023-01-29T00:10:20.859Z,51.95
2023-01-29T00:10:26.130Z,40.78
2023-01-29T00:12:53.631Z,41.75
2023-01-29T00:15:21.020Z,41.10
2023-01-29T00:17:48.406Z,46.33
2023-01-29T00:20:16.460Z,49.78
2023-01-29T00:22:43.945Z,51.80
2023-01-29T00:25:12.170Z,42.83
2023-01-29T00:27:39.459Z,44.25
2023-01-29T00:30:13.069Z,39.88
2023-01-29T00:32:40.916Z,46.30
2023-01-29T00:35:09.944Z,43.13
2023-01-29T00:37:37.935Z,44.05
2023-01-29T00:40:06.156Z,42.13
2023-01-29T00:42:52.304Z,52.08
2023-01-29T00:45:19.754Z,45.25
2023-01-29T00:47:47.416Z,40.30
2023-01-29T00:50:15.051Z,45.63
2023-01-29T00:52:42.699Z,50.17
2023-01-29T00:55:11.406Z,43.87
2023-01-29T00:57:39.306Z,51.95
2023-01-29T01:00:11.853Z,48.28
2023-01-29T01:03:17.579Z,47.67
2023-01-29T01:05:44.939Z,47.42
2023-01-29T01:08:32.542Z,41.78
2023-01-29T01:11:06.395Z,46.72
2023-01-29T01:13:34.734Z,47.75
2023-01-29T01:16:02.517Z,47.55
2023-01-29T01:18:30.970Z,43.88
2023-01-29T01:20:59.636Z,43.65
2023-01-29T01:25:55.466Z,46.08
2023-01-29T01:28:22.888Z,45.75
2023-01-29T01:30:50.204Z,48.60
2023-01-29T01:33:17.959Z,44.75
2023-01-29T01:35:45.920Z,42.65
2023-01-29T01:38:13.252Z,45.53
2023-01-29T01:40:46.031Z,44.72
2023-01-29T01:43:13.640Z,43.28
2023-01-29T01:45:42.508Z,43.25
2023-01-29T01:48:23.241Z,43.92
2023-01-29T01:50:55.543Z,41.63
2023-01-29T01:53:50.976Z,45.80
2023-01-29T01:56:27.251Z,44.13
2023-01-29T01:58:59.103Z,47.72
2023-01-29T02:01:28.487Z,47.67
2023-01-29T02:04:24.669Z,41.70
2023-01-29T02:07:13.294Z,39.25
2023-01-29T02:09:51.483Z,43.45
2023-01-29T02:12:21.654Z,47.13
2023-01-29T02:14:51.948Z,44.47
2023-01-29T02:17:20.764Z,47.58
2023-01-29T02:20:10.191Z,44.60
2023-01-29T02:22:59.262Z,49.53
2023-01-29T02:25:48.300Z,56.65
2023-01-29T02:28:53.418Z,46.80
2023-01-29T02:31:46.992Z,51.50
2023-01-29T02:35:09.374Z,48.90
2023-01-29T02:37:50.248Z,49.63
2023-01-29T02:40:47.093Z,44.72
2023-01-29T02:43:57.101Z,42.13
2023-01-29T02:47:24.699Z,43.00
2023-01-29T02:50:15.598Z,43.90
2023-01-29T02:53:00.291Z,44.17
2023-01-29T02:55:54.892Z,41.95
2023-01-29T02:58:47.991Z,43.60
2023-01-29T03:01:30.345Z,39.58
2023-01-29T03:04:06.907Z,42.55
2023-01-29T03:06:43.604Z,45.97
2023-01-29T03:09:26.553Z,45.67
2023-01-29T03:12:04.410Z,40.00
2023-01-29T03:14:58.613Z,44.05
2023-01-29T03:17:32.599Z,46.20
2023-01-29T03:20:02.643Z,42.33
2023-01-29T03:22:31.427Z,47.53
2023-01-29T03:25:23.452Z,39.03
2023-01-29T03:28:19.124Z,45.63
2023-01-29T03:31:16.057Z,44.10
2023-01-29T03:33:56.957Z,41.53
2023-01-29T03:36:45.325Z,44.08
2023-01-29T03:39:16.435Z,49.78
2023-01-29T03:41:56.047Z,43.60
2023-01-29T03:44:49.634Z,43.33
2023-01-29T03:47:46.355Z,48.25
2023-01-29T03:50:46.057Z,45.40
2023-01-29T03:53:25.406Z,50.80
2023-01-29T03:56:07.514Z,53.53
2023-01-29T03:58:55.062Z,42.55
2023-01-29T04:01:49.406Z,48.83
2023-01-29T04:04:25.000Z,46.75
2023-01-29T04:06:57.686Z,44.97
2023-01-29T04:09:36.288Z,43.38
2023-01-29T04:14:43.187Z,45.03
2023-01-29T04:17:23.906Z,46.22
2023-01-29T04:20:04.145Z,43.03
2023-01-29T04:22:39.918Z,47.55
2023-01-29T04:25:37.694Z,49.50
2023-01-29T04:28:35.569Z,49.08
2023-01-29T04:31:11.362Z,49.20
2023-01-29T04:33:56.989Z,41.63
2023-01-29T04:36:41.448Z,45.08
2023-01-29T04:39:34.681Z,44.35
2023-01-29T04:42:22.631Z,47.47
2023-01-29T04:45:18.604Z,44.00
2023-01-29T04:48:19.699Z,45.85
2023-01-29T04:51:01.362Z,43.83
2023-01-29T04:53:52.508Z,45.70
2023-01-29T04:56:47.984Z,44.55
2023-01-29T04:59:30.769Z,41.97
2023-01-29T05:02:02.396Z,37.78
2023-01-29T05:04:34.262Z,44.38
2023-01-29T05:07:07.164Z,41.80
2023-01-29T05:09:36.622Z,45.33
2023-01-29T05:12:10.049Z,43.17
2023-01-29T05:14:42.051Z,46.13
2023-01-29T05:17:20.192Z,48.95
2023-01-29T05:19:48.361Z,49.38
2023-01-29T05:22:22.649Z,47.65
2023-01-29T05:24:50.824Z,47.90
2023-01-29T05:27:42.486Z,51.53
2023-01-29T05:30:11.670Z,43.45
2023-01-29T05:32:39.807Z,47.15
2023-01-29T05:35:07.819Z,40.75
2023-01-29T05:37:35.212Z,43.35
2023-01-29T05:40:02.488Z,40.05
2023-01-29T05:42:29.969Z,47.05
2023-01-29T05:44:57.315Z,42.15
2023-01-29T05:47:24.666Z,45.22
2023-01-29T05:49:52.000Z,41.30
2023-01-29T05:52:19.368Z,45.75
2023-01-29T05:54:46.832Z,44.10
2023-01-29T05:57:15.297Z,43.58
2023-01-29T05:59:42.652Z,44.83
2023-01-29T06:02:10.135Z,44.03
2023-01-29T06:04:37.547Z,42.35
2023-01-29T06:07:05.274Z,39.88
2023-01-29T06:09:32.621Z,47.90
2023-01-29T06:11:59.995Z,47.33
2023-01-29T06:14:27.529Z,43.13
2023-01-29T06:16:54.865Z,42.10
2023-01-29T06:19:22.342Z,44.13
2023-01-29T06:21:49.766Z,48.20
2023-01-29T06:24:17.233Z,45.60
2023-01-29T06:26:44.611Z,50.13
2023-01-29T06:29:11.942Z,48.17
2023-01-29T06:31:39.947Z,42.70
2023-01-29T06:34:08.678Z,47.67
2023-01-29T06:39:04.221Z,40.53
2023-01-29T06:41:31.649Z,39.88
2023-01-29T06:43:59.068Z,42.20
2023-01-29T06:46:26.458Z,43.33
2023-01-29T06:48:53.846Z,44.58
2023-01-29T06:51:22.954Z,39.70
2023-01-29T06:53:50.255Z,43.10
2023-01-29T06:56:17.624Z,45.67
2023-01-29T06:58:45.055Z,53.15
2023-01-29T07:01:29.066Z,51.05
2023-01-29T07:04:01.112Z,43.35
2023-01-29T07:06:31.618Z,40.45
2023-01-29T07:08:59.024Z,49.08
2023-01-29T07:11:26.414Z,46.50
2023-01-29T07:13:53.769Z,41.03
2023-01-29T07:16:21.155Z,44.60
2023-01-29T07:18:48.778Z,43.83
2023-01-29T07:21:16.152Z,45.20
2023-01-29T07:23:43.599Z,40.88
2023-01-29T07:26:12.107Z,44.13
2023-01-29T07:28:40.537Z,41.55
2023-01-29T07:31:11.445Z,40.67
2023-01-29T07:33:38.914Z,50.22
2023-01-29T07:36:11.399Z,48.90
2023-01-29T07:38:38.945Z,67.30
2023-01-29T07:41:06.758Z,56.25
2023-01-29T07:43:34.167Z,59.95
2023-01-29T07:46:04.287Z,52.53
2023-01-29T07:48:31.713Z,58.65
2023-01-29T07:50:59.148Z,57.50
2023-01-29T07:53:28.679Z,49.88
2023-01-29T07:55:56.825Z,53.38
2023-01-29T07:58:24.652Z,53.63
2023-01-29T08:00:52.068Z,55.53
2023-01-29T08:03:20.821Z,50.75
2023-01-29T08:05:48.871Z,51.10
2023-01-29T08:08:16.410Z,46.47
2023-01-29T08:10:43.765Z,39.38
2023-01-29T08:13:11.235Z,45.55
2023-01-29T08:15:39.365Z,42.08
2023-01-29T08:18:06.950Z,42.33
2023-01-29T08:20:34.380Z,51.47
2023-01-29T08:23:11.744Z,54.47
2023-01-29T08:25:39.308Z,44.67
2023-01-29T08:28:06.920Z,60.83
2023-01-29T08:30:35.440Z,77.78
2023-01-29T08:33:04.431Z,45.17
2023-01-29T08:35:32.433Z,52.08
2023-01-29T08:38:03.343Z,59.05
2023-01-29T08:40:34.611Z,51.58
2023-01-29T08:43:09.011Z,46.08
2023-01-29T08:45:41.790Z,47.75
2023-01-29T08:48:10.382Z,44.53
2023-01-29T08:50:38.300Z,40.30
2023-01-29T08:53:08.362Z,43.55
2023-01-29T08:55:37.976Z,40.83
2023-01-29T08:58:11.318Z,41.60
2023-01-29T09:00:39.433Z,37.15
2023-01-29T09:03:08.060Z,40.40
2023-01-29T09:05:38.520Z,32.55
2023-01-29T09:08:08.266Z,36.05
2023-01-29T09:10:36.203Z,31.30
2023-01-29T09:13:04.450Z,38.53
2023-01-29T09:15:31.867Z,39.13
2023-01-29T09:18:04.352Z,35.05
2023-01-29T09:20:32.191Z,41.65
2023-01-29T09:23:10.204Z,41.63
2023-01-29T09:25:38.547Z,39.60
2023-01-29T09:28:06.348Z,43.30
2023-01-29T09:30:37.475Z,41.63
2023-01-29T09:33:08.215Z,43.38
2023-01-29T09:35:35.710Z,34.60
2023-01-29T09:38:03.644Z,34.60
2023-01-29T09:40:56.067Z,36.78
2023-01-29T09:43:53.348Z,34.55
2023-01-29T09:46:46.742Z,42.22
2023-01-29T09:49:26.251Z,37.78
2023-01-29T09:52:05.111Z,42.70
2023-01-29T09:54:53.217Z,38.22
2023-01-29T09:57:41.896Z,37.20
2023-01-29T10:00:54.048Z,45.25
2023-01-29T10:03:51.054Z,39.58
2023-01-29T10:06:31.275Z,38.28
2023-01-29T10:09:45.823Z,33.03
2023-01-29T10:12:39.713Z,60.78
2023-01-29T10:15:56.965Z,60.88
2023-01-29T10:18:51.492Z,42.17
2023-01-29T10:21:52.585Z,42.75
2023-01-29T10:25:05.860Z,41.15
2023-01-29T10:27:38.540Z,34.08
2023-01-29T10:30:33.421Z,32.70
2023-01-29T10:33:09.442Z,36.60
2023-01-29T10:35:43.556Z,35.70
2023-01-29T10:38:40.035Z,36.97
2023-01-29T10:41:10.191Z,43.25
2023-01-29T10:44:23.446Z,38.70
2023-01-29T10:47:52.806Z,37.58
2023-01-29T10:50:52.666Z,37.20
2023-01-29T10:54:00.684Z,35.90
2023-01-29T10:57:18.660Z,37.33
2023-01-29T11:00:01.721Z,31.15
2023-01-29T11:02:29.155Z,38.28
2023-01-29T11:04:56.739Z,30.88
2023-01-29T11:07:25.004Z,36.97
2023-01-29T11:10:10.299Z,36.65
2023-01-29T11:12:39.010Z,31.42
2023-01-29T11:15:12.137Z,31.35
2023-01-29T11:17:39.536Z,37.00
2023-01-29T11:20:28.662Z,32.00
2023-01-29T11:22:56.059Z,33.30
2023-01-29T11:25:23.508Z,32.08
2023-01-29T11:27:58.215Z,34.65
2023-01-29T11:30:36.125Z,36.40
2023-01-29T11:33:22.822Z,30.10
2023-01-29T11:35:52.704Z,39.65
2023-01-29T11:38:26.506Z,34.00
2023-01-29T11:41:14.492Z,32.60
2023-01-29T11:43:41.844Z,30.35
2023-01-29T11:46:16.001Z,37.78
2023-01-29T11:48:51.556Z,33.17
2023-01-29T11:51:41.335Z,41.67
2023-01-29T11:54:19.676Z,34.53
2023-01-29T11:56:49.049Z,41.70
2023-01-29T11:59:49.998Z,39.70
2023-01-29T12:02:35.593Z,33.80
2023-01-29T12:05:18.273Z,34.13
2023-01-29T12:07:50.333Z,32.47
2023-01-29T12:10:41.067Z,29.50
2023-01-29T12:13:12.033Z,36.53
2023-01-29T12:15:42.283Z,33.50
2023-01-29T12:18:35.276Z,36.25
2023-01-29T12:21:10.043Z,32.10
2023-01-29T12:23:52.803Z,39.95
2023-01-29T12:26:34.146Z,37.65
2023-01-29T12:29:39.443Z,36.15
2023-01-29T12:32:50.050Z,38.83
2023-01-29T12:35:35.196Z,39.90
2023-01-29T12:38:04.232Z,42.55
2023-01-29T12:40:58.354Z,45.95
2023-01-29T12:43:39.766Z,50.78
2023-01-29T12:46:26.287Z,84.25
2023-01-29T12:48:58.986Z,73.13
2023-01-29T12:51:37.782Z,104.65
2023-01-29T12:54:16.993Z,39.22
2023-01-29T12:56:50.755Z,43.45
2023-01-29T12:59:33.171Z,52.78
2023-01-29T13:02:29.473Z,42.95
2023-01-29T13:05:15.224Z,52.53
2023-01-29T13:07:50.153Z,52.15
2023-01-29T13:10:36.121Z,54.58
2023-01-29T13:13:24.419Z,53.25
2023-01-29T13:15:53.065Z,60.80
2023-01-29T13:21:24.490Z,47.20
2023-01-29T13:23:58.014Z,37.03
2023-01-29T13:26:26.650Z,52.78
2023-01-29T13:31:28.315Z,55.55
2023-01-29T13:34:21.667Z,54.50
2023-01-29T13:36:57.213Z,42.17
2023-01-29T13:39:31.301Z,48.25
2023-01-29T13:42:02.868Z,57.15
2023-01-29T13:44:37.812Z,50.42
2023-01-29T13:47:10.452Z,73.65
2023-01-29T13:49:46.044Z,56.97
2023-01-29T13:52:34.948Z,59.85
2023-01-29T13:55:22.262Z,63.92
2023-01-29T13:57:55.979Z,63.20
2023-01-29T14:00:30.965Z,57.05
2023-01-29T14:03:01.483Z,61.42
2023-01-29T14:05:31.715Z,59.75
2023-01-29T14:08:05.517Z,60.53
2023-01-29T14:10:35.521Z,58.00
2023-01-29T14:13:18.145Z,58.92
2023-01-29T14:16:12.333Z,67.30
2023-01-29T14:18:57.200Z,57.60
2023-01-29T14:21:34.461Z,61.63
2023-01-29T14:24:19.992Z,69.53
2023-01-29T14:26:54.310Z,61.33
2023-01-29T14:29:35.526Z,63.97
2023-01-29T14:32:21.603Z,64.05
2023-01-29T14:34:55.702Z,60.15
2023-01-29T14:37:42.079Z,65.63
2023-01-29T14:40:12.521Z,61.88
2023-01-29T14:42:54.677Z,66.75
2023-01-29T14:45:28.242Z,65.80
2023-01-29T14:48:10.411Z,67.03
2023-01-29T14:50:47.407Z,67.28
2023-01-29T14:53:45.703Z,63.30
2023-01-29T14:58:50.317Z,59.22
2023-01-29T15:01:30.639Z,55.67
2023-01-29T15:04:49.871Z,61.42
2023-01-29T15:07:39.656Z,67.30
2023-01-29T15:10:24.749Z,66.63
2023-01-29T15:13:03.183Z,65.93
2023-01-29T15:16:06.299Z,61.65
2023-01-29T15:18:40.622Z,58.13
2023-01-29T15:21:14.041Z,73.10
2023-01-29T15:23:41.809Z,67.55
2023-01-29T15:26:20.687Z,64.13
2023-01-29T15:29:03.438Z,64.18
2023-01-29T15:31:32.900Z,58.85
2023-01-29T15:34:07.561Z,67.55
2023-01-29T15:36:37.125Z,72.07
2023-01-29T15:39:20.007Z,70.75
2023-01-29T15:41:48.362Z,66.90
2023-01-29T15:44:26.804Z,72.97
2023-01-29T15:46:59.556Z,68.00
2023-01-29T15:49:34.654Z,68.85
2023-01-29T15:52:20.377Z,62.45
2023-01-29T15:54:48.173Z,95.68
2023-01-29T15:57:25.566Z,72.63
2023-01-29T15:59:57.727Z,64.95
2023-01-29T16:02:36.847Z,68.57
2023-01-29T16:05:18.989Z,88.63
2023-01-29T16:07:47.321Z,71.15
2023-01-29T16:10:22.753Z,62.00
2023-01-29T16:12:52.361Z,66.50
2023-01-29T16:15:34.239Z,76.97
2023-01-29T16:18:19.271Z,91.43
2023-01-29T16:20:53.678Z,73.43
2023-01-29T16:23:35.070Z,69.35
2023-01-29T16:26:08.405Z,80.60
2023-01-29T16:28:43.608Z,75.65
2023-01-29T16:31:14.043Z,71.30
2023-01-29T16:33:43.529Z,66.85
2023-01-29T16:36:24.840Z,76.47
2023-01-29T16:39:05.951Z,60.05
2023-01-29T16:41:38.288Z,58.30
2023-01-29T16:44:35.469Z,66.15
2023-01-29T16:47:14.013Z,63.42
2023-01-29T16:52:32.065Z,108.90
2023-01-29T16:55:11.610Z,61.97
2023-01-29T16:57:40.804Z,75.57
2023-01-29T17:00:27.938Z,105.10
2023-01-29T17:03:03.539Z,102.85
2023-01-29T17:05:35.693Z,87.35
2023-01-29T17:08:04.513Z,79.07
2023-01-29T17:10:33.643Z,76.55
2023-01-29T17:13:08.478Z,71.78
2023-01-29T17:15:43.349Z,71.75
2023-01-29T17:18:21.983Z,64.25
2023-01-29T17:20:50.574Z,64.97
2023-01-29T17:23:17.905Z,61.22
2023-01-29T17:25:46.872Z,68.95
2023-01-29T17:28:17.013Z,71.20
2023-01-29T17:30:53.288Z,69.13
2023-01-29T17:33:26.058Z,77.57
2023-01-29T17:35:53.608Z,69.03
2023-01-29T17:38:26.246Z,69.72
2023-01-29T17:41:20.647Z,64.75
2023-01-29T17:43:48.077Z,68.75
2023-01-29T17:46:17.862Z,66.00
2023-01-29T17:48:46.192Z,71.07
2023-01-29T17:51:16.687Z,71.93
2023-01-29T17:53:46.663Z,68.13
2023-01-29T17:56:27.608Z,67.95
2023-01-29T17:58:55.211Z,89.30
2023-01-29T18:01:22.611Z,73.78
2023-01-29T18:03:50.140Z,68.22
2023-01-29T18:06:28.407Z,69.65
2023-01-29T18:08:59.111Z,72.88
2023-01-29T18:11:28.155Z,85.78
2023-01-29T18:13:57.128Z,83.15
2023-01-29T18:16:25.920Z,95.72
2023-01-29T18:18:53.647Z,91.05
2023-01-29T18:21:21.021Z,75.33
2023-01-29T18:23:48.543Z,64.32
2023-01-29T18:26:17.468Z,62.40
2023-01-29T18:28:45.196Z,65.82
2023-01-29T18:31:14.463Z,59.60
2023-01-29T18:33:42.109Z,57.50
2023-01-29T18:36:09.581Z,55.97
2023-01-29T18:38:36.973Z,68.63
2023-01-29T18:41:10.787Z,65.85
2023-01-29T18:43:40.566Z,68.53
2023-01-29T18:46:09.372Z,66.93
2023-01-29T18:48:37.211Z,69.22
2023-01-29T18:51:05.257Z,66.63
2023-01-29T18:53:33.476Z,66.55
2023-01-29T18:56:05.398Z,61.63
2023-01-29T18:58:38.343Z,53.60
2023-01-29T19:01:11.875Z,58.33
2023-01-29T19:03:42.764Z,57.65
2023-01-29T19:06:12.211Z,50.95
2023-01-29T19:08:40.890Z,66.40
2023-01-29T19:13:38.003Z,52.80
2023-01-29T19:16:13.469Z,52.08
2023-01-29T19:18:41.684Z,46.08
2023-01-29T19:21:13.096Z,52.10
2023-01-29T19:23:43.046Z,54.92
2023-01-29T19:26:11.691Z,55.83
2023-01-29T19:28:39.624Z,49.35
2023-01-29T19:31:07.034Z,53.63
2023-01-29T19:33:34.459Z,65.28
2023-01-29T19:36:02.778Z,57.42
2023-01-29T19:38:33.594Z,52.13
2023-01-29T19:41:01.196Z,60.55
2023-01-29T19:43:30.911Z,62.58
2023-01-29T19:46:00.735Z,61.35
2023-01-29T19:48:28.825Z,61.05
2023-01-29T19:50:58.459Z,68.90
2023-01-29T19:53:28.766Z,67.20
2023-01-29T19:56:10.143Z,73.35
2023-01-29T19:58:38.079Z,69.03
2023-01-29T20:01:14.013Z,62.35
2023-01-29T20:03:42.208Z,63.55
2023-01-29T20:06:09.769Z,62.88
2023-01-29T20:08:37.315Z,64.93
2023-01-29T20:11:05.707Z,59.25
2023-01-29T20:13:33.768Z,70.25
2023-01-29T20:16:05.537Z,80.18
2023-01-29T20:18:33.158Z,73.07
2023-01-29T20:21:09.328Z,84.30
2023-01-29T20:23:39.702Z,74.25
2023-01-29T20:26:15.942Z,74.97
2023-01-29T20:28:45.912Z,73.30
2023-01-29T20:31:13.927Z,68.82
2023-01-29T20:33:41.755Z,73.50
2023-01-29T20:36:12.142Z,75.97
2023-01-29T20:38:39.703Z,87.38
2023-01-29T20:41:16.322Z,90.70
2023-01-29T20:43:44.947Z,86.13
2023-01-29T20:48:42.085Z,76.38
2023-01-29T20:51:15.230Z,69.30
2023-01-29T20:53:45.487Z,76.22
2023-01-29T20:56:16.408Z,68.32
2023-01-29T20:58:46.997Z,80.97
2023-01-29T21:01:18.648Z,82.15
2023-01-29T21:03:47.586Z,67.80
2023-01-29T21:06:15.908Z,69.63
2023-01-29T21:08:43.315Z,67.43
2023-01-29T21:11:11.384Z,66.57
2023-01-29T21:13:39.266Z,64.82
2023-01-29T21:16:07.438Z,75.03
2023-01-29T21:18:34.777Z,80.13
2023-01-29T21:21:02.383Z,69.22
2023-01-29T21:23:29.923Z,81.20
2023-01-29T21:26:05.074Z,103.00
2023-01-29T21:28:33.300Z,80.22
2023-01-29T21:31:06.743Z,74.45
2023-01-29T21:33:35.017Z,87.25
2023-01-29T21:36:02.993Z,103.10
2023-01-29T21:38:30.587Z,78.63
2023-01-29T21:41:04.588Z,89.88
2023-01-29T21:43:32.052Z,83.05
2023-01-29T21:46:11.293Z,80.43
2023-01-29T21:48:39.651Z,76.30
2023-01-29T21:51:07.890Z,86.47
2023-01-29T21:53:36.693Z,74.25
2023-01-29T21:56:05.940Z,77.00
2023-01-29T21:58:33.628Z,73.22
2023-01-29T22:01:36.758Z,69.45
2023-01-29T22:03:48.504Z,64.45
2023-01-29T22:06:15.905Z,70.57
2023-01-29T22:08:43.279Z,67.03
2023-01-29T22:11:11.021Z,70.30
2023-01-29T22:13:38.551Z,72.95
2023-01-29T22:16:06.343Z,76.50
2023-01-29T22:18:34.624Z,68.95
2023-01-29T22:21:02.924Z,68.95
2023-01-29T22:23:32.055Z,77.95
2023-01-29T22:26:08.973Z,96.63
2023-01-29T22:28:36.801Z,91.35
2023-01-29T22:31:06.016Z,99.82
2023-01-29T22:33:34.245Z,98.03
2023-01-29T22:36:01.835Z,96.28
2023-01-29T22:38:30.016Z,83.45
2023-01-29T22:41:00.653Z,79.22
2023-01-29T22:43:29.298Z,82.90
2023-01-29T22:48:24.628Z,91.53
2023-01-29T22:51:11.736Z,82.35
2023-01-29T22:53:49.047Z,83.03
2023-01-29T22:56:17.827Z,73.03
2023-01-29T22:58:45.262Z,90.93
2023-01-29T23:01:12.592Z,89.93
2023-01-29T23:03:39.971Z,92.75
2023-01-29T23:06:07.341Z,101.22
2023-01-29T23:08:34.728Z,88.93
2023-01-29T23:11:15.913Z,84.40
2023-01-29T23:13:54.425Z,91.85
2023-01-29T23:16:26.848Z,93.15
2023-01-29T23:18:56.510Z,92.00
2023-01-29T23:21:26.181Z,92.55
2023-01-29T23:23:55.331Z,91.32
2023-01-29T23:26:41.588Z,93.28
2023-01-29T23:29:09.844Z,86.32
2023-01-29T23:31:37.361Z,90.57
2023-01-29T23:34:04.821Z,96.13
2023-01-29T23:36:32.358Z,87.65
2023-01-29T23:38:59.762Z,89.07
2023-01-29T23:41:27.109Z,82.35
2023-01-29T23:43:54.628Z,90.10
2023-01-29T23:46:22.065Z,83.35
2023-01-29T23:48:49.527Z,88.70
2023-01-29T23:51:17.162Z,98.88
2023-01-29T23:53:44.455Z,94.47
2023-01-29T23:56:12.100Z,105.68
2023-01-29T23:58:39.456Z,97.97
